createdAt,value
2019-05-20T00:04:07.233Z,18.07
2019-05-20T00:09:09.449Z,17.90
2019-05-20T00:14:12.177Z,17.82
2019-05-20T00:19:14.349Z,17.83
2019-05-20T00:24:16.212Z,17.68
2019-05-20T00:29:18.076Z,17.51
2019-05-20T00:34:34.320Z,17.56
2019-05-20T00:39:22.374Z,17.48
2019-05-20T00:44:25.517Z,17.61
2019-05-20T00:49:27.348Z,17.54
2019-05-20T00:54:29.362Z,17.60
2019-05-20T00:59:31.949Z,17.21
2019-05-20T01:04:34.858Z,17.28
2019-05-20T01:09:37.120Z,17.12
2019-05-20T01:14:39.095Z,17.37
2019-05-20T01:19:41.647Z,17.31
2019-05-20T01:24:43.585Z,17.15
2019-05-20T01:29:45.582Z,16.97
2019-05-20T01:34:47.983Z,17.16
2019-05-20T01:39:50.158Z,16.89
2019-05-20T01:44:51.933Z,17.07
2019-05-20T01:49:53.714Z,16.98
2019-05-20T01:54:55.911Z,17.09
2019-05-20T01:59:57.255Z,17.22
2019-05-20T02:04:58.554Z,16.98
2019-05-20T02:09:59.906Z,16.92
2019-05-20T02:15:02.098Z,16.67
2019-05-20T02:20:04.302Z,16.73
2019-05-20T02:25:05.664Z,16.78
2019-05-20T02:30:07.010Z,16.94
2019-05-20T02:35:08.387Z,16.75
2019-05-20T02:40:10.453Z,16.81
2019-05-20T02:45:11.753Z,16.90
2019-05-20T02:50:13.874Z,16.54
2019-05-20T02:55:15.209Z,16.68
2019-05-20T03:00:17.572Z,16.73
2019-05-20T03:05:19.062Z,16.68
2019-05-20T03:10:21.413Z,15.95
2019-05-20T03:15:22.932Z,15.68
2019-05-20T03:20:24.251Z,15.53
2019-05-20T03:25:25.649Z,15.45
2019-05-20T03:30:27.102Z,15.27
2019-05-20T03:35:28.463Z,15.14
2019-05-20T03:40:29.866Z,15.28
2019-05-20T03:45:31.230Z,15.35
2019-05-20T03:50:32.604Z,15.35
2019-05-20T03:55:34.055Z,15.32
2019-05-20T04:00:49.360Z,15.16
2019-05-20T04:05:50.878Z,15.58
2019-05-20T04:16:24.834Z,15.89
2019-05-20T04:21:27.237Z,15.74
2019-05-20T04:26:28.676Z,15.82
2019-05-20T04:31:30.008Z,15.79
2019-05-20T04:36:31.407Z,15.86
2019-05-20T04:41:35.594Z,15.68
2019-05-20T04:46:34.573Z,16.07
2019-05-20T04:51:36.023Z,16.66
2019-05-20T04:56:38.270Z,16.83
2019-05-20T05:01:39.880Z,16.90
2019-05-20T05:06:41.454Z,16.90
2019-05-20T05:11:42.857Z,16.28
2019-05-20T05:16:44.371Z,16.03
2019-05-20T05:21:45.779Z,15.97
2019-05-20T05:26:48.022Z,16.08
2019-05-20T05:31:49.725Z,16.27
2019-05-20T05:36:51.049Z,15.93
2019-05-20T05:41:52.390Z,16.06
2019-05-20T05:46:53.716Z,15.42
2019-05-20T05:51:55.088Z,15.78
2019-05-20T05:56:56.445Z,15.38
2019-05-20T06:01:57.770Z,15.17
2019-05-20T06:06:59.102Z,15.27
2019-05-20T06:12:00.405Z,15.66
2019-05-20T06:17:01.782Z,15.83
2019-05-20T06:22:03.181Z,15.86
2019-05-20T06:27:05.271Z,15.68
2019-05-20T06:32:06.610Z,16.00
2019-05-20T06:37:08.022Z,15.58
2019-05-20T06:42:09.313Z,15.94
2019-05-20T06:47:10.655Z,15.71
2019-05-20T06:52:12.034Z,15.41
2019-05-20T06:57:13.588Z,15.67
2019-05-20T07:02:14.851Z,15.60
2019-05-20T07:07:20.942Z,15.64
2019-05-20T07:12:17.630Z,16.14
2019-05-20T07:17:18.944Z,16.10
2019-05-20T07:22:29.646Z,16.31
2019-05-20T07:27:30.966Z,16.62
2019-05-20T07:32:32.302Z,16.56
2019-05-20T07:37:34.386Z,16.42
2019-05-20T07:42:35.727Z,16.41
2019-05-20T07:47:37.818Z,16.47
2019-05-20T07:52:39.166Z,16.54
2019-05-20T07:57:40.505Z,16.49
2019-05-20T08:02:41.906Z,16.43
2019-05-20T08:07:51.884Z,16.80
2019-05-20T08:12:45.395Z,16.96
2019-05-20T08:17:46.791Z,16.91
2019-05-20T08:22:48.208Z,16.53
2019-05-20T08:27:50.306Z,16.10
2019-05-20T08:32:51.625Z,16.18
2019-05-20T08:37:52.985Z,16.13
2019-05-20T08:42:54.457Z,16.25
2019-05-20T08:47:55.836Z,16.04
2019-05-20T08:52:57.245Z,16.25
2019-05-20T08:57:58.597Z,16.13
2019-05-20T09:02:59.932Z,16.55
2019-05-20T09:08:03.501Z,16.43
2019-05-20T09:13:02.821Z,16.71
2019-05-20T09:18:04.194Z,16.65
2019-05-20T09:23:05.560Z,16.03
2019-05-20T09:28:06.881Z,15.99
2019-05-20T09:33:08.236Z,16.18
2019-05-20T09:38:20.080Z,15.94
2019-05-20T09:43:11.802Z,16.48
2019-05-20T09:48:13.105Z,16.22
2019-05-20T09:53:14.549Z,16.40
2019-05-20T09:58:15.903Z,16.29
2019-05-20T10:03:17.230Z,15.91
2019-05-20T10:08:34.523Z,15.99
2019-05-20T10:13:19.948Z,16.36
2019-05-20T10:18:35.980Z,16.13
2019-05-20T10:23:22.684Z,16.66
2019-05-20T10:28:24.791Z,16.15
2019-05-20T10:33:26.125Z,16.64
2019-05-20T10:38:27.602Z,16.40
2019-05-20T10:43:29.813Z,16.62
2019-05-20T10:48:31.166Z,17.21
2019-05-20T10:53:32.527Z,17.16
2019-05-20T10:58:33.910Z,17.01
2019-05-20T11:03:35.158Z,17.05
2019-05-20T11:08:36.514Z,16.58
2019-05-20T11:13:38.542Z,17.13
2019-05-20T11:18:39.894Z,17.25
2019-05-20T11:23:41.221Z,17.48
2019-05-20T11:28:42.491Z,16.66
2019-05-20T11:33:43.798Z,17.07
2019-05-20T11:38:45.073Z,17.47
2019-05-20T11:43:46.392Z,17.27
2019-05-20T11:48:47.654Z,17.41
2019-05-20T11:53:48.903Z,17.69
2019-05-20T11:58:50.161Z,17.27
2019-05-20T12:03:52.178Z,17.19
2019-05-20T12:08:53.454Z,17.21
2019-05-20T12:13:54.710Z,16.86
2019-05-20T12:18:56.003Z,16.59
2019-05-20T12:23:57.290Z,16.89
2019-05-20T12:28:58.605Z,17.03
2019-05-20T12:33:59.845Z,17.04
2019-05-20T12:39:01.150Z,16.84
2019-05-20T12:44:11.654Z,17.18
2019-05-20T12:49:04.084Z,17.28
2019-05-20T12:54:05.481Z,17.22
2019-05-20T12:59:06.992Z,17.05
2019-05-20T13:04:08.546Z,17.23
2019-05-20T13:09:09.901Z,16.76
2019-05-20T13:14:11.628Z,16.85
2019-05-20T13:19:13.030Z,16.76
2019-05-20T13:24:14.489Z,17.08
2019-05-20T13:29:16.345Z,16.98
2019-05-20T13:34:18.787Z,15.83
2019-05-20T13:39:20.125Z,16.49
2019-05-20T13:44:21.478Z,15.82
2019-05-20T13:49:23.156Z,16.40
2019-05-20T13:54:24.539Z,16.68
2019-05-20T13:59:26.209Z,15.78
2019-05-20T14:04:27.683Z,15.60
2019-05-20T14:09:29.053Z,15.72
2019-05-20T14:14:30.444Z,16.09
2019-05-20T14:19:31.825Z,15.90
2019-05-20T14:24:33.189Z,16.11
2019-05-20T14:29:34.583Z,16.33
2019-05-20T14:34:36.194Z,16.07
2019-05-20T14:39:37.788Z,16.77
2019-05-20T14:44:39.133Z,16.45
2019-05-20T14:49:40.473Z,16.54
2019-05-20T14:54:41.797Z,16.63
2019-05-20T14:59:43.955Z,17.11
2019-05-20T15:04:45.266Z,17.27
2019-05-20T15:09:46.640Z,17.16
2019-05-20T15:14:48.861Z,16.73
2019-05-20T15:19:50.229Z,17.13
2019-05-20T15:24:51.600Z,17.00
2019-05-20T15:29:52.975Z,17.15
2019-05-20T15:34:54.287Z,16.64
2019-05-20T15:39:55.685Z,16.88
2019-05-20T15:44:57.017Z,16.51
2019-05-20T15:49:58.688Z,16.73
2019-05-20T15:54:59.842Z,17.08
2019-05-20T16:00:01.240Z,17.11
2019-05-20T16:05:02.559Z,16.55
2019-05-20T16:10:03.921Z,16.68
2019-05-20T16:15:05.357Z,16.49
2019-05-20T16:20:07.377Z,16.64
2019-05-20T16:25:08.765Z,16.44
2019-05-20T16:30:10.338Z,16.72
2019-05-20T16:35:11.712Z,16.50
2019-05-20T16:40:13.033Z,16.20
2019-05-20T16:45:14.415Z,16.48
2019-05-20T16:50:16.089Z,15.89
2019-05-20T16:55:17.480Z,16.33
2019-05-20T17:00:30.808Z,16.18
2019-05-20T17:05:20.087Z,16.01
2019-05-20T17:10:21.433Z,15.49
2019-05-20T17:15:22.784Z,16.27
2019-05-20T17:20:24.124Z,15.55
2019-05-20T17:25:26.237Z,15.28
2019-05-20T17:30:27.583Z,15.39
2019-05-20T17:35:28.873Z,15.55
2019-05-20T17:40:30.184Z,15.47
2019-05-20T17:45:31.539Z,15.38
2019-05-20T17:50:32.855Z,15.68
2019-05-20T17:55:34.179Z,15.74
2019-05-20T18:00:35.525Z,15.64
2019-05-20T18:05:36.885Z,15.54
2019-05-20T18:10:38.265Z,15.51
2019-05-20T18:15:39.670Z,15.91
2019-05-20T18:20:41.182Z,15.76
2019-05-20T18:25:42.503Z,15.79
2019-05-20T18:30:43.854Z,15.78
2019-05-20T18:35:45.155Z,16.04
2019-05-20T18:40:46.503Z,16.13
2019-05-20T18:45:47.837Z,16.14
2019-05-20T18:50:49.149Z,16.07
2019-05-20T18:55:50.522Z,15.96
2019-05-20T19:00:52.257Z,15.07
2019-05-20T19:05:53.736Z,15.03
2019-05-20T19:10:55.161Z,15.24
2019-05-20T19:15:56.556Z,15.19
2019-05-20T19:20:57.927Z,15.36
2019-05-20T19:25:59.375Z,15.19
2019-05-20T19:31:00.892Z,14.98
2019-05-20T19:36:02.730Z,15.31
2019-05-20T19:41:04.036Z,15.27
2019-05-20T19:46:05.341Z,14.90
2019-05-20T19:51:06.637Z,14.86
2019-05-20T19:56:07.928Z,15.07
2019-05-20T20:01:12.732Z,15.26
2019-05-20T20:06:14.061Z,15.22
2019-05-20T20:11:15.516Z,15.37
2019-05-20T20:16:18.023Z,15.21
2019-05-20T20:21:18.188Z,15.80
2019-05-20T20:26:19.492Z,15.63
2019-05-20T20:31:20.853Z,15.82
2019-05-20T20:36:22.149Z,15.44
2019-05-20T20:41:27.991Z,15.26
2019-05-20T20:46:29.937Z,14.45
2019-05-20T20:51:33.171Z,14.49
2019-05-20T20:56:35.049Z,14.78
2019-05-20T21:01:38.343Z,14.68
2019-05-20T21:06:43.504Z,14.82
2019-05-20T21:11:44.816Z,14.94
2019-05-20T21:16:46.145Z,14.75
2019-05-20T21:21:47.493Z,14.83
2019-05-20T21:26:53.982Z,15.13
2019-05-20T21:31:56.758Z,14.62
2019-05-20T21:36:58.957Z,14.90
2019-05-20T21:42:02.110Z,14.72
2019-05-20T21:47:04.159Z,14.35
2019-05-20T21:52:06.289Z,14.65
2019-05-20T21:57:07.578Z,14.76
2019-05-20T22:02:08.975Z,15.09
2019-05-20T22:07:10.340Z,15.33
2019-05-20T22:12:11.719Z,15.45
2019-05-20T22:17:13.819Z,15.13
2019-05-20T22:22:21.442Z,14.82
2019-05-20T22:27:22.638Z,14.84
2019-05-20T22:32:23.903Z,14.90
2019-05-20T22:37:26.659Z,14.97
2019-05-20T22:42:28.048Z,15.20
2019-05-20T22:47:29.361Z,15.15
2019-05-20T22:52:30.667Z,15.03
2019-05-20T22:57:31.945Z,15.09
2019-05-20T23:02:33.225Z,15.12
2019-05-20T23:07:34.617Z,14.81
2019-05-20T23:12:35.929Z,15.06
2019-05-20T23:17:37.225Z,15.17
2019-05-20T23:22:38.530Z,14.98
2019-05-20T23:27:40.559Z,14.84
2019-05-20T23:32:41.874Z,15.02
2019-05-20T23:37:43.170Z,14.67
2019-05-20T23:42:44.597Z,14.74
2019-05-20T23:47:45.922Z,14.48
2019-05-20T23:52:47.232Z,14.09
2019-05-20T23:57:48.531Z,13.88
